sensor_id;sensor_type;location;lat;lon;timestamp;P1;durP1;ratioP1;P2;durP2;ratioP2
15155;SDS011;7678;50.058;8.306;2023-05-31T00:01:37;7.23;;;3.10;;
15155;SDS011;7678;50.058;8.306;2023-05-31T00:04:05;9.43;;;3.03;;
15155;SDS011;7678;50.058;8.306;2023-05-31T00:06:34;12.93;;;2.60;;
15155;SDS011;7678;50.058;8.306;2023-05-31T00:09:03;9.90;;;3.23;;
15155;SDS011;7678;50.058;8.306;2023-05-31T00:11:31;8.63;;;3.27;;
15155;SDS011;7678;50.058;8.306;2023-05-31T00:14:00;6.70;;;2.80;;
15155;SDS011;7678;50.058;8.306;2023-05-31T00:16:28;12.97;;;2.67;;
15155;SDS011;7678;50.058;8.306;2023-05-31T00:19:17;9.03;;;3.20;;
15155;SDS011;7678;50.058;8.306;2023-05-31T00:21:46;11.10;;;2.93;;
15155;SDS011;7678;50.058;8.306;2023-05-31T00:24:15;9.70;;;3.10;;
15155;SDS011;7678;50.058;8.306;2023-05-31T00:26:43;8.90;;;3.20;;
15155;SDS011;7678;50.058;8.306;2023-05-31T00:29:12;8.20;;;2.70;;
15155;SDS011;7678;50.058;8.306;2023-05-31T00:31:41;7.80;;;2.77;;
15155;SDS011;7678;50.058;8.306;2023-05-31T00:34:09;5.67;;;2.47;;
15155;SDS011;7678;50.058;8.306;2023-05-31T00:36:40;6.77;;;2.40;;
15155;SDS011;7678;50.058;8.306;2023-05-31T00:39:08;8.17;;;2.67;;
15155;SDS011;7678;50.058;8.306;2023-05-31T00:41:37;8.87;;;2.53;;
15155;SDS011;7678;50.058;8.306;2023-05-31T00:44:05;11.27;;;2.80;;
15155;SDS011;7678;50.058;8.306;2023-05-31T00:46:34;6.80;;;2.43;;
15155;SDS011;7678;50.058;8.306;2023-05-31T00:49:04;11.17;;;3.23;;
15155;SDS011;7678;50.058;8.306;2023-05-31T00:51:32;7.63;;;3.30;;
15155;SDS011;7678;50.058;8.306;2023-05-31T00:54:03;6.27;;;2.60;;
15155;SDS011;7678;50.058;8.306;2023-05-31T00:56:34;10.47;;;3.00;;
15155;SDS011;7678;50.058;8.306;2023-05-31T00:59:02;9.37;;;2.50;;
15155;SDS011;7678;50.058;8.306;2023-05-31T01:01:30;12.20;;;3.20;;
15155;SDS011;7678;50.058;8.306;2023-05-31T01:04:00;7.43;;;2.73;;
15155;SDS011;7678;50.058;8.306;2023-05-31T01:06:29;9.63;;;3.03;;
15155;SDS011;7678;50.058;8.306;2023-05-31T01:08:59;9.03;;;3.20;;
15155;SDS011;7678;50.058;8.306;2023-05-31T01:11:36;9.07;;;3.00;;
15155;SDS011;7678;50.058;8.306;2023-05-31T01:14:29;8.73;;;3.07;;
15155;SDS011;7678;50.058;8.306;2023-05-31T01:17:05;10.20;;;3.00;;
15155;SDS011;7678;50.058;8.306;2023-05-31T01:19:45;9.80;;;2.93;;
15155;SDS011;7678;50.058;8.306;2023-05-31T01:22:19;7.70;;;3.30;;
15155;SDS011;7678;50.058;8.306;2023-05-31T01:25:22;6.47;;;2.90;;
15155;SDS011;7678;50.058;8.306;2023-05-31T01:28:00;8.97;;;2.90;;
15155;SDS011;7678;50.058;8.306;2023-05-31T01:30:31;7.87;;;2.40;;
15155;SDS011;7678;50.058;8.306;2023-05-31T01:33:03;7.03;;;2.63;;
15155;SDS011;7678;50.058;8.306;2023-05-31T01:35:35;9.17;;;3.13;;
15155;SDS011;7678;50.058;8.306;2023-05-31T01:38:06;6.43;;;2.93;;
15155;SDS011;7678;50.058;8.306;2023-05-31T01:40:34;8.63;;;2.70;;
15155;SDS011;7678;50.058;8.306;2023-05-31T01:43:04;6.07;;;2.80;;
15155;SDS011;7678;50.058;8.306;2023-05-31T01:45:33;8.27;;;2.93;;
15155;SDS011;7678;50.058;8.306;2023-05-31T01:48:03;7.37;;;2.83;;
15155;SDS011;7678;50.058;8.306;2023-05-31T01:50:33;8.47;;;2.63;;
15155;SDS011;7678;50.058;8.306;2023-05-31T01:53:02;7.10;;;2.60;;
15155;SDS011;7678;50.058;8.306;2023-05-31T01:55:30;8.60;;;2.87;;
15155;SDS011;7678;50.058;8.306;2023-05-31T01:57:59;8.70;;;3.27;;
15155;SDS011;7678;50.058;8.306;2023-05-31T02:00:30;6.70;;;2.93;;
15155;SDS011;7678;50.058;8.306;2023-05-31T02:02:58;8.07;;;2.50;;
15155;SDS011;7678;50.058;8.306;2023-05-31T02:05:27;5.27;;;2.80;;
15155;SDS011;7678;50.058;8.306;2023-05-31T02:07:56;6.83;;;2.53;;
15155;SDS011;7678;50.058;8.306;2023-05-31T02:10:24;8.40;;;2.97;;
15155;SDS011;7678;50.058;8.306;2023-05-31T02:12:52;6.20;;;2.40;;
15155;SDS011;7678;50.058;8.306;2023-05-31T02:15:21;7.03;;;2.60;;
15155;SDS011;7678;50.058;8.306;2023-05-31T02:17:50;7.83;;;2.80;;
15155;SDS011;7678;50.058;8.306;2023-05-31T02:20:19;9.80;;;3.17;;
15155;SDS011;7678;50.058;8.306;2023-05-31T02:22:47;8.07;;;2.90;;
15155;SDS011;7678;50.058;8.306;2023-05-31T02:25:15;7.63;;;2.93;;
15155;SDS011;7678;50.058;8.306;2023-05-31T02:27:43;7.90;;;2.73;;
15155;SDS011;7678;50.058;8.306;2023-05-31T02:30:11;8.27;;;2.73;;
15155;SDS011;7678;50.058;8.306;2023-05-31T02:32:39;8.37;;;3.03;;
15155;SDS011;7678;50.058;8.306;2023-05-31T02:35:10;8.07;;;3.37;;
15155;SDS011;7678;50.058;8.306;2023-05-31T02:37:39;4.07;;;2.27;;
15155;SDS011;7678;50.058;8.306;2023-05-31T02:40:07;6.43;;;2.87;;
15155;SDS011;7678;50.058;8.306;2023-05-31T02:42:35;8.13;;;2.90;;
15155;SDS011;7678;50.058;8.306;2023-05-31T02:45:05;6.90;;;2.50;;
15155;SDS011;7678;50.058;8.306;2023-05-31T02:47:35;6.53;;;2.57;;
15155;SDS011;7678;50.058;8.306;2023-05-31T02:50:05;5.23;;;2.30;;
15155;SDS011;7678;50.058;8.306;2023-05-31T02:52:37;7.73;;;2.73;;
15155;SDS011;7678;50.058;8.306;2023-05-31T02:55:05;7.47;;;2.93;;
15155;SDS011;7678;50.058;8.306;2023-05-31T02:57:34;8.30;;;2.63;;
15155;SDS011;7678;50.058;8.306;2023-05-31T03:00:03;6.90;;;2.70;;
15155;SDS011;7678;50.058;8.306;2023-05-31T03:02:46;8.47;;;2.77;;
15155;SDS011;7678;50.058;8.306;2023-05-31T03:05:16;8.33;;;2.97;;
15155;SDS011;7678;50.058;8.306;2023-05-31T03:07:46;8.27;;;2.83;;
15155;SDS011;7678;50.058;8.306;2023-05-31T03:10:15;6.10;;;2.40;;
15155;SDS011;7678;50.058;8.306;2023-05-31T03:12:46;7.03;;;2.87;;
15155;SDS011;7678;50.058;8.306;2023-05-31T03:15:16;6.60;;;2.30;;
15155;SDS011;7678;50.058;8.306;2023-05-31T03:17:44;4.53;;;2.27;;
15155;SDS011;7678;50.058;8.306;2023-05-31T03:20:13;4.90;;;2.50;;
15155;SDS011;7678;50.058;8.306;2023-05-31T03:22:42;7.20;;;2.80;;
15155;SDS011;7678;50.058;8.306;2023-05-31T03:25:12;8.83;;;2.97;;
15155;SDS011;7678;50.058;8.306;2023-05-31T03:27:41;5.93;;;2.70;;
15155;SDS011;7678;50.058;8.306;2023-05-31T03:30:10;6.87;;;2.67;;
15155;SDS011;7678;50.058;8.306;2023-05-31T03:32:39;7.93;;;2.83;;
15155;SDS011;7678;50.058;8.306;2023-05-31T03:35:08;8.90;;;2.63;;
15155;SDS011;7678;50.058;8.306;2023-05-31T03:37:36;4.53;;;2.53;;
15155;SDS011;7678;50.058;8.306;2023-05-31T03:40:07;6.10;;;2.90;;
15155;SDS011;7678;50.058;8.306;2023-05-31T03:42:39;11.50;;;3.13;;
15155;SDS011;7678;50.058;8.306;2023-05-31T03:45:08;6.50;;;2.57;;
15155;SDS011;7678;50.058;8.306;2023-05-31T03:47:36;5.70;;;2.20;;
15155;SDS011;7678;50.058;8.306;2023-05-31T03:50:04;7.50;;;2.77;;
15155;SDS011;7678;50.058;8.306;2023-05-31T03:52:33;6.47;;;2.53;;
15155;SDS011;7678;50.058;8.306;2023-05-31T03:55:04;5.23;;;2.37;;
15155;SDS011;7678;50.058;8.306;2023-05-31T03:57:33;4.23;;;2.47;;
15155;SDS011;7678;50.058;8.306;2023-05-31T04:00:04;8.50;;;2.57;;
15155;SDS011;7678;50.058;8.306;2023-05-31T04:02:33;4.57;;;2.27;;
15155;SDS011;7678;50.058;8.306;2023-05-31T04:05:14;8.13;;;2.93;;
15155;SDS011;7678;50.058;8.306;2023-05-31T04:07:42;6.63;;;2.80;;
15155;SDS011;7678;50.058;8.306;2023-05-31T04:10:10;6.47;;;2.63;;
15155;SDS011;7678;50.058;8.306;2023-05-31T04:12:39;7.43;;;2.83;;
15155;SDS011;7678;50.058;8.306;2023-05-31T04:15:08;8.13;;;2.57;;
15155;SDS011;7678;50.058;8.306;2023-05-31T04:17:37;5.93;;;2.30;;
15155;SDS011;7678;50.058;8.306;2023-05-31T04:20:06;7.80;;;2.30;;
15155;SDS011;7678;50.058;8.306;2023-05-31T04:22:35;7.87;;;2.33;;
15155;SDS011;7678;50.058;8.306;2023-05-31T04:25:03;6.40;;;2.77;;
15155;SDS011;7678;50.058;8.306;2023-05-31T04:27:33;6.00;;;2.83;;
15155;SDS011;7678;50.058;8.306;2023-05-31T04:30:05;5.43;;;2.50;;
15155;SDS011;7678;50.058;8.306;2023-05-31T04:32:35;4.53;;;2.27;;
15155;SDS011;7678;50.058;8.306;2023-05-31T04:35:04;5.13;;;2.40;;
15155;SDS011;7678;50.058;8.306;2023-05-31T04:37:34;4.97;;;2.73;;
15155;SDS011;7678;50.058;8.306;2023-05-31T04:40:04;5.43;;;2.30;;
15155;SDS011;7678;50.058;8.306;2023-05-31T04:42:36;5.00;;;2.30;;
15155;SDS011;7678;50.058;8.306;2023-05-31T04:45:05;4.60;;;2.20;;
15155;SDS011;7678;50.058;8.306;2023-05-31T04:47:35;6.07;;;2.57;;
15155;SDS011;7678;50.058;8.306;2023-05-31T04:50:03;6.83;;;2.70;;
15155;SDS011;7678;50.058;8.306;2023-05-31T04:52:33;7.13;;;2.70;;
15155;SDS011;7678;50.058;8.306;2023-05-31T04:55:06;6.50;;;2.70;;
15155;SDS011;7678;50.058;8.306;2023-05-31T04:57:35;6.47;;;2.87;;
15155;SDS011;7678;50.058;8.306;2023-05-31T05:00:03;5.93;;;2.27;;
15155;SDS011;7678;50.058;8.306;2023-05-31T05:02:37;5.07;;;2.40;;
15155;SDS011;7678;50.058;8.306;2023-05-31T05:05:05;5.20;;;2.23;;
15155;SDS011;7678;50.058;8.306;2023-05-31T05:07:34;5.57;;;2.57;;
15155;SDS011;7678;50.058;8.306;2023-05-31T05:10:03;5.67;;;2.57;;
15155;SDS011;7678;50.058;8.306;2023-05-31T05:12:31;10.93;;;2.30;;
15155;SDS011;7678;50.058;8.306;2023-05-31T05:15:00;6.67;;;2.43;;
15155;SDS011;7678;50.058;8.306;2023-05-31T05:17:28;5.43;;;2.40;;
15155;SDS011;7678;50.058;8.306;2023-05-31T05:19:58;6.63;;;2.57;;
15155;SDS011;7678;50.058;8.306;2023-05-31T05:22:27;3.83;;;2.30;;
15155;SDS011;7678;50.058;8.306;2023-05-31T05:24:55;5.67;;;2.20;;
15155;SDS011;7678;50.058;8.306;2023-05-31T05:27:24;7.83;;;2.27;;
15155;SDS011;7678;50.058;8.306;2023-05-31T05:29:52;5.80;;;2.20;;
15155;SDS011;7678;50.058;8.306;2023-05-31T05:32:20;7.13;;;2.80;;
15155;SDS011;7678;50.058;8.306;2023-05-31T05:34:48;6.23;;;2.60;;
15155;SDS011;7678;50.058;8.306;2023-05-31T05:37:18;6.50;;;2.40;;
15155;SDS011;7678;50.058;8.306;2023-05-31T05:39:46;7.10;;;2.63;;
15155;SDS011;7678;50.058;8.306;2023-05-31T05:42:14;5.70;;;2.53;;
15155;SDS011;7678;50.058;8.306;2023-05-31T05:44:42;10.27;;;2.57;;
15155;SDS011;7678;50.058;8.306;2023-05-31T05:47:10;6.40;;;2.27;;
15155;SDS011;7678;50.058;8.306;2023-05-31T05:49:38;5.00;;;2.23;;
15155;SDS011;7678;50.058;8.306;2023-05-31T05:52:06;5.73;;;2.20;;
15155;SDS011;7678;50.058;8.306;2023-05-31T05:54:36;11.47;;;2.80;;
15155;SDS011;7678;50.058;8.306;2023-05-31T05:57:05;4.33;;;2.37;;
15155;SDS011;7678;50.058;8.306;2023-05-31T05:59:33;5.07;;;2.20;;
15155;SDS011;7678;50.058;8.306;2023-05-31T06:02:01;10.60;;;2.70;;
15155;SDS011;7678;50.058;8.306;2023-05-31T06:04:29;7.23;;;2.63;;
15155;SDS011;7678;50.058;8.306;2023-05-31T06:06:57;7.13;;;2.70;;
15155;SDS011;7678;50.058;8.306;2023-05-31T06:09:25;5.43;;;2.27;;
15155;SDS011;7678;50.058;8.306;2023-05-31T06:11:55;6.50;;;2.27;;
15155;SDS011;7678;50.058;8.306;2023-05-31T06:14:23;5.70;;;2.60;;
15155;SDS011;7678;50.058;8.306;2023-05-31T06:16:51;7.23;;;2.90;;
15155;SDS011;7678;50.058;8.306;2023-05-31T06:19:19;8.00;;;2.40;;
15155;SDS011;7678;50.058;8.306;2023-05-31T06:21:48;8.00;;;2.10;;
15155;SDS011;7678;50.058;8.306;2023-05-31T06:24:16;7.57;;;2.70;;
15155;SDS011;7678;50.058;8.306;2023-05-31T06:26:44;4.53;;;2.07;;
15155;SDS011;7678;50.058;8.306;2023-05-31T06:29:13;6.53;;;2.10;;
15155;SDS011;7678;50.058;8.306;2023-05-31T06:31:41;6.77;;;2.13;;
15155;SDS011;7678;50.058;8.306;2023-05-31T06:34:09;5.00;;;2.27;;
15155;SDS011;7678;50.058;8.306;2023-05-31T06:36:37;9.23;;;2.53;;
15155;SDS011;7678;50.058;8.306;2023-05-31T06:39:05;5.57;;;2.50;;
15155;SDS011;7678;50.058;8.306;2023-05-31T06:41:33;6.70;;;2.30;;
15155;SDS011;7678;50.058;8.306;2023-05-31T06:44:02;3.47;;;2.00;;
15155;SDS011;7678;50.058;8.306;2023-05-31T06:46:32;6.10;;;2.50;;
15155;SDS011;7678;50.058;8.306;2023-05-31T06:49:00;3.73;;;2.50;;
15155;SDS011;7678;50.058;8.306;2023-05-31T06:51:37;3.40;;;2.20;;
15155;SDS011;7678;50.058;8.306;2023-05-31T06:54:06;8.83;;;2.67;;
15155;SDS011;7678;50.058;8.306;2023-05-31T06:56:34;9.30;;;3.07;;
15155;SDS011;7678;50.058;8.306;2023-05-31T06:59:02;5.33;;;2.13;;
15155;SDS011;7678;50.058;8.306;2023-05-31T07:01:31;8.93;;;2.33;;
15155;SDS011;7678;50.058;8.306;2023-05-31T07:03:59;7.60;;;2.30;;
15155;SDS011;7678;50.058;8.306;2023-05-31T07:06:28;5.03;;;2.27;;
15155;SDS011;7678;50.058;8.306;2023-05-31T07:08:56;7.93;;;2.07;;
15155;SDS011;7678;50.058;8.306;2023-05-31T07:11:24;4.50;;;2.23;;
15155;SDS011;7678;50.058;8.306;2023-05-31T07:13:52;6.37;;;1.97;;
15155;SDS011;7678;50.058;8.306;2023-05-31T07:16:20;7.30;;;2.47;;
15155;SDS011;7678;50.058;8.306;2023-05-31T07:18:50;6.47;;;2.47;;
15155;SDS011;7678;50.058;8.306;2023-05-31T07:21:18;5.13;;;2.10;;
15155;SDS011;7678;50.058;8.306;2023-05-31T07:23:47;6.40;;;2.40;;
15155;SDS011;7678;50.058;8.306;2023-05-31T07:26:15;7.40;;;2.40;;
15155;SDS011;7678;50.058;8.306;2023-05-31T07:28:44;4.93;;;1.90;;
15155;SDS011;7678;50.058;8.306;2023-05-31T07:31:12;6.03;;;2.80;;
15155;SDS011;7678;50.058;8.306;2023-05-31T07:33:43;3.63;;;2.03;;
15155;SDS011;7678;50.058;8.306;2023-05-31T07:36:12;6.30;;;2.30;;
15155;SDS011;7678;50.058;8.306;2023-05-31T07:38:40;3.90;;;2.10;;
15155;SDS011;7678;50.058;8.306;2023-05-31T07:41:08;5.30;;;2.20;;
15155;SDS011;7678;50.058;8.306;2023-05-31T07:43:36;5.93;;;2.33;;
15155;SDS011;7678;50.058;8.306;2023-05-31T07:46:07;4.30;;;2.10;;
15155;SDS011;7678;50.058;8.306;2023-05-31T07:48:35;6.83;;;1.90;;
15155;SDS011;7678;50.058;8.306;2023-05-31T07:51:03;4.33;;;2.23;;
15155;SDS011;7678;50.058;8.306;2023-05-31T07:53:33;5.37;;;2.30;;
15155;SDS011;7678;50.058;8.306;2023-05-31T07:56:01;5.73;;;2.47;;
15155;SDS011;7678;50.058;8.306;2023-05-31T07:58:30;7.47;;;2.27;;
15155;SDS011;7678;50.058;8.306;2023-05-31T08:00:58;4.27;;;2.20;;
15155;SDS011;7678;50.058;8.306;2023-05-31T08:03:26;4.97;;;2.20;;
15155;SDS011;7678;50.058;8.306;2023-05-31T08:05:54;9.23;;;2.23;;
15155;SDS011;7678;50.058;8.306;2023-05-31T08:08:22;7.10;;;2.80;;
15155;SDS011;7678;50.058;8.306;2023-05-31T08:10:52;8.30;;;2.17;;
15155;SDS011;7678;50.058;8.306;2023-05-31T08:13:20;5.43;;;2.60;;
15155;SDS011;7678;50.058;8.306;2023-05-31T08:15:49;7.93;;;2.30;;
15155;SDS011;7678;50.058;8.306;2023-05-31T08:18:18;5.07;;;2.33;;
15155;SDS011;7678;50.058;8.306;2023-05-31T08:20:46;7.73;;;2.23;;
15155;SDS011;7678;50.058;8.306;2023-05-31T08:23:18;5.07;;;2.47;;
15155;SDS011;7678;50.058;8.306;2023-05-31T08:25:47;4.77;;;2.27;;
15155;SDS011;7678;50.058;8.306;2023-05-31T08:28:18;5.47;;;2.63;;
15155;SDS011;7678;50.058;8.306;2023-05-31T08:30:46;3.90;;;2.17;;
15155;SDS011;7678;50.058;8.306;2023-05-31T08:33:15;6.00;;;2.30;;
15155;SDS011;7678;50.058;8.306;2023-05-31T08:35:43;5.43;;;2.40;;
15155;SDS011;7678;50.058;8.306;2023-05-31T08:38:11;4.43;;;2.10;;
15155;SDS011;7678;50.058;8.306;2023-05-31T08:40:39;6.63;;;2.80;;
15155;SDS011;7678;50.058;8.306;2023-05-31T08:43:08;5.43;;;2.33;;
15155;SDS011;7678;50.058;8.306;2023-05-31T08:45:43;4.87;;;2.37;;
15155;SDS011;7678;50.058;8.306;2023-05-31T08:48:14;3.83;;;2.00;;
15155;SDS011;7678;50.058;8.306;2023-05-31T08:50:45;4.80;;;2.17;;
15155;SDS011;7678;50.058;8.306;2023-05-31T08:53:15;3.77;;;2.07;;
15155;SDS011;7678;50.058;8.306;2023-05-31T08:55:46;7.00;;;2.70;;
15155;SDS011;7678;50.058;8.306;2023-05-31T08:58:16;4.73;;;2.10;;
15155;SDS011;7678;50.058;8.306;2023-05-31T09:00:47;3.47;;;2.27;;
15155;SDS011;7678;50.058;8.306;2023-05-31T09:03:16;5.57;;;2.17;;
15155;SDS011;7678;50.058;8.306;2023-05-31T09:05:44;5.83;;;2.67;;
15155;SDS011;7678;50.058;8.306;2023-05-31T09:08:12;6.13;;;2.20;;
15155;SDS011;7678;50.058;8.306;2023-05-31T09:10:43;5.80;;;2.33;;
15155;SDS011;7678;50.058;8.306;2023-05-31T09:13:12;6.27;;;2.30;;
15155;SDS011;7678;50.058;8.306;2023-05-31T09:15:41;7.83;;;2.37;;
15155;SDS011;7678;50.058;8.306;2023-05-31T09:18:13;4.67;;;2.77;;
15155;SDS011;7678;50.058;8.306;2023-05-31T09:20:42;5.30;;;2.50;;
15155;SDS011;7678;50.058;8.306;2023-05-31T09:23:14;6.33;;;2.97;;
15155;SDS011;7678;50.058;8.306;2023-05-31T09:25:45;3.87;;;2.17;;
15155;SDS011;7678;50.058;8.306;2023-05-31T09:28:14;3.60;;;2.33;;
15155;SDS011;7678;50.058;8.306;2023-05-31T09:30:44;4.03;;;2.37;;
15155;SDS011;7678;50.058;8.306;2023-05-31T09:33:13;4.97;;;2.50;;
15155;SDS011;7678;50.058;8.306;2023-05-31T09:35:54;5.27;;;2.83;;
15155;SDS011;7678;50.058;8.306;2023-05-31T09:38:30;4.23;;;2.47;;
15155;SDS011;7678;50.058;8.306;2023-05-31T09:41:15;3.03;;;2.00;;
15155;SDS011;7678;50.058;8.306;2023-05-31T09:43:45;6.27;;;2.47;;
15155;SDS011;7678;50.058;8.306;2023-05-31T09:46:17;5.43;;;2.50;;
15155;SDS011;7678;50.058;8.306;2023-05-31T09:48:56;8.20;;;2.10;;
15155;SDS011;7678;50.058;8.306;2023-05-31T09:51:25;4.10;;;2.20;;
15155;SDS011;7678;50.058;8.306;2023-05-31T09:53:53;10.10;;;2.33;;
15155;SDS011;7678;50.058;8.306;2023-05-31T09:56:23;5.10;;;2.07;;
15155;SDS011;7678;50.058;8.306;2023-05-31T09:58:55;3.93;;;2.10;;
15155;SDS011;7678;50.058;8.306;2023-05-31T10:01:24;3.63;;;2.10;;
15155;SDS011;7678;50.058;8.306;2023-05-31T10:03:54;4.47;;;1.90;;
15155;SDS011;7678;50.058;8.306;2023-05-31T10:06:25;4.17;;;2.20;;
15155;SDS011;7678;50.058;8.306;2023-05-31T10:08:54;3.87;;;2.00;;
15155;SDS011;7678;50.058;8.306;2023-05-31T10:11:24;4.27;;;2.20;;
15155;SDS011;7678;50.058;8.306;2023-05-31T10:13:56;3.80;;;2.23;;
15155;SDS011;7678;50.058;8.306;2023-05-31T10:16:28;5.80;;;1.93;;
15155;SDS011;7678;50.058;8.306;2023-05-31T10:19:05;4.93;;;2.00;;
15155;SDS011;7678;50.058;8.306;2023-05-31T10:24:33;3.50;;;2.17;;
15155;SDS011;7678;50.058;8.306;2023-05-31T10:27:08;4.83;;;2.00;;
15155;SDS011;7678;50.058;8.306;2023-05-31T10:29:40;5.87;;;1.90;;
15155;SDS011;7678;50.058;8.306;2023-05-31T10:32:13;5.37;;;2.40;;
15155;SDS011;7678;50.058;8.306;2023-05-31T10:34:45;5.77;;;2.17;;
15155;SDS011;7678;50.058;8.306;2023-05-31T10:37:14;7.57;;;2.10;;
15155;SDS011;7678;50.058;8.306;2023-05-31T10:39:44;6.43;;;2.20;;
15155;SDS011;7678;50.058;8.306;2023-05-31T10:42:19;6.03;;;2.23;;
15155;SDS011;7678;50.058;8.306;2023-05-31T10:44:53;2.83;;;1.90;;
15155;SDS011;7678;50.058;8.306;2023-05-31T10:47:28;5.47;;;1.97;;
15155;SDS011;7678;50.058;8.306;2023-05-31T10:50:04;5.07;;;1.60;;
15155;SDS011;7678;50.058;8.306;2023-05-31T10:52:33;2.83;;;1.80;;
15155;SDS011;7678;50.058;8.306;2023-05-31T10:55:17;3.17;;;1.93;;
15155;SDS011;7678;50.058;8.306;2023-05-31T10:57:50;3.20;;;2.03;;
15155;SDS011;7678;50.058;8.306;2023-05-31T11:00:21;5.93;;;2.37;;
15155;SDS011;7678;50.058;8.306;2023-05-31T11:02:51;4.93;;;2.20;;
15155;SDS011;7678;50.058;8.306;2023-05-31T11:05:23;4.00;;;2.13;;
15155;SDS011;7678;50.058;8.306;2023-05-31T11:07:54;4.73;;;1.93;;
15155;SDS011;7678;50.058;8.306;2023-05-31T11:10:26;4.20;;;2.10;;
15155;SDS011;7678;50.058;8.306;2023-05-31T11:12:55;4.17;;;1.67;;
15155;SDS011;7678;50.058;8.306;2023-05-31T11:15:37;4.30;;;1.80;;
15155;SDS011;7678;50.058;8.306;2023-05-31T11:18:07;2.83;;;1.90;;
15155;SDS011;7678;50.058;8.306;2023-05-31T11:20:37;2.50;;;1.90;;
15155;SDS011;7678;50.058;8.306;2023-05-31T11:23:22;4.03;;;2.00;;
15155;SDS011;7678;50.058;8.306;2023-05-31T11:26:07;6.83;;;2.10;;
15155;SDS011;7678;50.058;8.306;2023-05-31T11:28:53;3.00;;;1.80;;
15155;SDS011;7678;50.058;8.306;2023-05-31T11:34:25;4.37;;;1.70;;
15155;SDS011;7678;50.058;8.306;2023-05-31T11:36:58;5.20;;;2.07;;
15155;SDS011;7678;50.058;8.306;2023-05-31T11:39:27;2.83;;;1.90;;
15155;SDS011;7678;50.058;8.306;2023-05-31T11:41:55;6.30;;;2.00;;
15155;SDS011;7678;50.058;8.306;2023-05-31T11:44:28;2.77;;;1.60;;
15155;SDS011;7678;50.058;8.306;2023-05-31T11:47:00;2.80;;;1.90;;
15155;SDS011;7678;50.058;8.306;2023-05-31T11:49:32;4.67;;;2.13;;
15155;SDS011;7678;50.058;8.306;2023-05-31T11:52:02;6.63;;;2.10;;
15155;SDS011;7678;50.058;8.306;2023-05-31T11:54:32;4.93;;;1.90;;
15155;SDS011;7678;50.058;8.306;2023-05-31T11:57:02;3.55;;;1.70;;
15155;SDS011;7678;50.058;8.306;2023-05-31T11:59:33;3.33;;;1.67;;
15155;SDS011;7678;50.058;8.306;2023-05-31T12:02:02;3.67;;;1.87;;
15155;SDS011;7678;50.058;8.306;2023-05-31T12:04:32;2.67;;;1.67;;
15155;SDS011;7678;50.058;8.306;2023-05-31T12:07:04;3.47;;;1.97;;
15155;SDS011;7678;50.058;8.306;2023-05-31T12:09:34;3.10;;;1.53;;
15155;SDS011;7678;50.058;8.306;2023-05-31T12:12:02;2.45;;;1.70;;
15155;SDS011;7678;50.058;8.306;2023-05-31T12:14:32;5.55;;;1.67;;
15155;SDS011;7678;50.058;8.306;2023-05-31T12:17:03;5.57;;;1.70;;
15155;SDS011;7678;50.058;8.306;2023-05-31T12:19:32;4.43;;;1.92;;
15155;SDS011;7678;50.058;8.306;2023-05-31T12:22:04;2.13;;;1.70;;
15155;SDS011;7678;50.058;8.306;2023-05-31T12:24:33;3.42;;;1.90;;
15155;SDS011;7678;50.058;8.306;2023-05-31T12:27:04;4.15;;;1.67;;
15155;SDS011;7678;50.058;8.306;2023-05-31T12:29:33;6.95;;;2.10;;
15155;SDS011;7678;50.058;8.306;2023-05-31T12:32:02;4.18;;;1.95;;
15155;SDS011;7678;50.058;8.306;2023-05-31T12:34:32;5.93;;;1.98;;
15155;SDS011;7678;50.058;8.306;2023-05-31T12:37:02;3.42;;;1.85;;
15155;SDS011;7678;50.058;8.306;2023-05-31T12:39:34;3.17;;;1.60;;
15155;SDS011;7678;50.058;8.306;2023-05-31T12:42:03;4.75;;;1.98;;
15155;SDS011;7678;50.058;8.306;2023-05-31T12:44:33;2.97;;;1.70;;
15155;SDS011;7678;50.058;8.306;2023-05-31T12:47:03;5.20;;;1.80;;
15155;SDS011;7678;50.058;8.306;2023-05-31T12:49:34;3.72;;;1.70;;
15155;SDS011;7678;50.058;8.306;2023-05-31T12:52:09;5.93;;;1.92;;
15155;SDS011;7678;50.058;8.306;2023-05-31T12:54:38;3.40;;;1.60;;
15155;SDS011;7678;50.058;8.306;2023-05-31T12:57:07;3.88;;;1.58;;
15155;SDS011;7678;50.058;8.306;2023-05-31T12:59:36;3.38;;;1.75;;
15155;SDS011;7678;50.058;8.306;2023-05-31T13:02:05;5.68;;;1.98;;
15155;SDS011;7678;50.058;8.306;2023-05-31T13:04:33;6.70;;;1.77;;
15155;SDS011;7678;50.058;8.306;2023-05-31T13:07:01;4.05;;;1.65;;
15155;SDS011;7678;50.058;8.306;2023-05-31T13:09:31;3.45;;;1.75;;
15155;SDS011;7678;50.058;8.306;2023-05-31T13:11:59;2.90;;;1.58;;
15155;SDS011;7678;50.058;8.306;2023-05-31T13:14:26;3.42;;;1.75;;
15155;SDS011;7678;50.058;8.306;2023-05-31T13:16:55;2.28;;;1.70;;
15155;SDS011;7678;50.058;8.306;2023-05-31T13:19:24;8.80;;;1.85;;
15155;SDS011;7678;50.058;8.306;2023-05-31T13:21:51;4.43;;;1.60;;
15155;SDS011;7678;50.058;8.306;2023-05-31T13:24:20;4.28;;;1.70;;
15155;SDS011;7678;50.058;8.306;2023-05-31T13:26:50;3.92;;;1.92;;
15155;SDS011;7678;50.058;8.306;2023-05-31T13:29:19;2.00;;;1.38;;
15155;SDS011;7678;50.058;8.306;2023-05-31T13:31:49;1.98;;;1.42;;
15155;SDS011;7678;50.058;8.306;2023-05-31T13:34:17;4.78;;;1.65;;
15155;SDS011;7678;50.058;8.306;2023-05-31T13:36:46;4.60;;;1.60;;
15155;SDS011;7678;50.058;8.306;2023-05-31T13:39:14;3.35;;;1.70;;
15155;SDS011;7678;50.058;8.306;2023-05-31T13:41:42;2.53;;;1.75;;
15155;SDS011;7678;50.058;8.306;2023-05-31T13:44:13;2.70;;;1.85;;
15155;SDS011;7678;50.058;8.306;2023-05-31T13:46:42;4.68;;;2.00;;
15155;SDS011;7678;50.058;8.306;2023-05-31T13:49:10;6.10;;;2.00;;
15155;SDS011;7678;50.058;8.306;2023-05-31T13:51:41;5.25;;;1.60;;
15155;SDS011;7678;50.058;8.306;2023-05-31T13:54:10;4.68;;;1.90;;
15155;SDS011;7678;50.058;8.306;2023-05-31T13:56:38;2.38;;;1.65;;
15155;SDS011;7678;50.058;8.306;2023-05-31T13:59:06;4.60;;;1.55;;
15155;SDS011;7678;50.058;8.306;2023-05-31T14:01:35;3.95;;;1.83;;
15155;SDS011;7678;50.058;8.306;2023-05-31T14:04:03;2.90;;;1.58;;
15155;SDS011;7678;50.058;8.306;2023-05-31T14:06:32;3.72;;;1.92;;
15155;SDS011;7678;50.058;8.306;2023-05-31T14:09:00;2.38;;;1.50;;
15155;SDS011;7678;50.058;8.306;2023-05-31T14:11:28;3.20;;;2.00;;
15155;SDS011;7678;50.058;8.306;2023-05-31T14:13:56;3.47;;;1.50;;
15155;SDS011;7678;50.058;8.306;2023-05-31T14:16:24;3.25;;;1.80;;
15155;SDS011;7678;50.058;8.306;2023-05-31T14:18:56;3.40;;;2.13;;
15155;SDS011;7678;50.058;8.306;2023-05-31T14:21:24;4.05;;;1.63;;
15155;SDS011;7678;50.058;8.306;2023-05-31T14:23:52;5.03;;;1.50;;
15155;SDS011;7678;50.058;8.306;2023-05-31T14:26:20;3.33;;;1.65;;
15155;SDS011;7678;50.058;8.306;2023-05-31T14:28:48;4.43;;;1.85;;
15155;SDS011;7678;50.058;8.306;2023-05-31T14:31:17;4.97;;;1.95;;
15155;SDS011;7678;50.058;8.306;2023-05-31T14:33:45;6.43;;;1.75;;
15155;SDS011;7678;50.058;8.306;2023-05-31T14:36:16;7.38;;;1.92;;
15155;SDS011;7678;50.058;8.306;2023-05-31T14:38:44;2.80;;;1.63;;
15155;SDS011;7678;50.058;8.306;2023-05-31T14:41:12;2.28;;;1.75;;
15155;SDS011;7678;50.058;8.306;2023-05-31T14:43:40;5.70;;;1.90;;
15155;SDS011;7678;50.058;8.306;2023-05-31T14:46:08;3.53;;;1.80;;
15155;SDS011;7678;50.058;8.306;2023-05-31T14:48:37;5.18;;;1.90;;
15155;SDS011;7678;50.058;8.306;2023-05-31T14:51:05;4.45;;;1.90;;
15155;SDS011;7678;50.058;8.306;2023-05-31T14:53:34;3.13;;;1.70;;
15155;SDS011;7678;50.058;8.306;2023-05-31T14:56:03;4.60;;;1.92;;
15155;SDS011;7678;50.058;8.306;2023-05-31T14:58:37;8.63;;;1.98;;
15155;SDS011;7678;50.058;8.306;2023-05-31T15:01:05;4.72;;;1.70;;
15155;SDS011;7678;50.058;8.306;2023-05-31T15:03:33;4.38;;;1.70;;
15155;SDS011;7678;50.058;8.306;2023-05-31T15:06:01;6.65;;;1.80;;
15155;SDS011;7678;50.058;8.306;2023-05-31T15:08:29;4.78;;;1.70;;
15155;SDS011;7678;50.058;8.306;2023-05-31T15:11:02;3.33;;;1.48;;
15155;SDS011;7678;50.058;8.306;2023-05-31T15:13:30;4.25;;;1.70;;
15155;SDS011;7678;50.058;8.306;2023-05-31T15:15:59;4.72;;;1.60;;
15155;SDS011;7678;50.058;8.306;2023-05-31T15:18:27;2.75;;;2.00;;
15155;SDS011;7678;50.058;8.306;2023-05-31T15:20:55;4.15;;;1.80;;
15155;SDS011;7678;50.058;8.306;2023-05-31T15:23:25;2.70;;;1.80;;